Kailua, HI (96734)

6:18 AM HST on October 25, 2014 (GMT -1000)
Kailua Beach | Change Station
CLOSE
Current Station
Personal Weather Station
Location: Kailua, HI
Elevation: 0 ft
Nearby Weather Stations

Elev 0 ft 21.40 °N, 157.73 °W | Updated 2 minutes ago

Scattered Clouds
Scattered Clouds
78.3 °F
Feels Like 81 °F
N
4.0
Wind Variable Wind from East
Gusts 6.0 mph

Today
High -- | Low -- °F
--% Chance of Precip.
Yesterday
High -- | Low -- °F
Precip. -- in
6:30 AM 5:58 PM
Waxing Crescent, 3% visible
Pressure 30.00 in
Visibility 10.0 miles
Clouds Few 2100 ft
Scattered Clouds 2800 ft
Heat Index 81 °F
Dew Point 74 °F
Humidity 87%
Rainfall 0.00 in
Snow Depth Not available.
UV 0 out of 12
Pollen Not available.
Air Quality Not available.
Flu Activity Sporadic
METAR PHNG 251557Z 09004KT 10SM FEW021 SCT028 26/22 A3001 RMK AO2 SLP157 T02560217 $

More Conditions Fewer Conditions

Pressure 30.00 in
Visibility 10.0 miles
Clouds Few 2100 ft
Scattered Clouds 2800 ft
Heat Index 81 °F
Dew Point 74 °F
Humidity 87%
Rainfall 0.00 in
Snow Depth Not available.
UV 0 out of 12
Pollen Not available.
Air Quality Not available.
Flu Activity Sporadic
METAR PHNG 251557Z 09004KT 10SM FEW021 SCT028 26/22 A3001 RMK AO2 SLP157 T02560217 $

More Conditions Fewer Conditions

10-Day Weather Forecast

Almanac

Astronomy

Oct. 25, 2014 Rise Set
Actual Time 6:30 AM HST 5:58 PM HST
Civil Twilight 6:08 AM HST 6:21 PM HST
Nautical Twilight 5:41 AM HST 6:47 PM HST
Astronomical Twilight 5:15 AM HST 7:13 PM HST
Moon 8:11 AM HST 7:41 PM HST
Length of Visible Light 12h 13m
Length of Day
11h 28m
Tomorrow will be 1m 7s shorter.
Waxing Crescent, 3% of the Moon is Illuminated
Today
Waxing Crescent
Oct 30
First Quarter
Nov 6
Full
Nov 14
Last Quarter
Nov 22
New

Today's Extremes

State Highs State Lows

Community

WunderPhotos

Upload Photos

1,764,887 photos uploaded!

Nearby

Snow Depth

Station Depth Elevation
No new snow has been reported.

Earthquake Activity

City Distance Mag. Time & Date
No recent earthquake activity has been reported nearby.
Minimum magnitude displayed is 2.5.

Coastal Water Temperatures

Place Temperature
No Stations Reporting

Nearby Weather Stations